sensor_id;sensor_type;location;lat;lon;timestamp;pressure;altitude;pressure_sealevel;temperature;humidity
28683;BME280;15862;43.062;25.626;2022-12-01T00:01:05;100865.22;;;4.35;100.00
28683;BME280;15862;43.062;25.626;2022-12-01T00:03:31;100863.41;;;4.37;100.00
28683;BME280;15862;43.062;25.626;2022-12-01T00:06:05;100863.81;;;4.25;100.00
28683;BME280;15862;43.062;25.626;2022-12-01T00:08:31;100869.69;;;4.29;100.00
28683;BME280;15862;43.062;25.626;2022-12-01T00:11:10;100874.13;;;4.22;100.00
28683;BME280;15862;43.062;25.626;2022-12-01T00:13:38;100877.59;;;4.21;100.00
28683;BME280;15862;43.062;25.626;2022-12-01T00:16:11;100876.81;;;4.19;100.00
28683;BME280;15862;43.062;25.626;2022-12-01T00:18:37;100877.91;;;4.12;100.00
28683;BME280;15862;43.062;25.626;2022-12-01T00:21:03;100891.56;;;4.11;100.00
28683;BME280;15862;43.062;25.626;2022-12-01T00:23:28;100887.91;;;4.18;100.00
28683;BME280;15862;43.062;25.626;2022-12-01T00:25:53;100878.84;;;4.08;100.00
28683;BME280;15862;43.062;25.626;2022-12-01T00:28:19;100877.25;;;4.06;100.00
28683;BME280;15862;43.062;25.626;2022-12-01T00:30:44;100881.22;;;4.14;100.00
28683;BME280;15862;43.062;25.626;2022-12-01T00:33:10;100878.97;;;4.05;100.00
28683;BME280;15862;43.062;25.626;2022-12-01T00:35:35;100867.13;;;4.03;100.00
28683;BME280;15862;43.062;25.626;2022-12-01T00:38:01;100889.75;;;4.15;100.00
28683;BME280;15862;43.062;25.626;2022-12-01T00:40:26;100879.56;;;4.13;100.00
28683;BME280;15862;43.062;25.626;2022-12-01T00:42:51;100876.22;;;4.11;100.00
28683;BME280;15862;43.062;25.626;2022-12-01T00:45:17;100862.44;;;4.15;100.00
28683;BME280;15862;43.062;25.626;2022-12-01T00:47:42;100868.19;;;4.22;100.00
28683;BME280;15862;43.062;25.626;2022-12-01T00:50:08;100860.59;;;4.20;100.00
28683;BME280;15862;43.062;25.626;2022-12-01T00:52:33;100866.31;;;4.27;100.00
28683;BME280;15862;43.062;25.626;2022-12-01T00:54:59;100866.53;;;4.21;100.00
28683;BME280;15862;43.062;25.626;2022-12-01T00:57:24;100865.94;;;4.13;100.00
28683;BME280;15862;43.062;25.626;2022-12-01T00:59:50;100864.84;;;4.20;100.00
28683;BME280;15862;43.062;25.626;2022-12-01T01:02:15;100864.22;;;4.13;100.00
28683;BME280;15862;43.062;25.626;2022-12-01T01:04:41;100863.22;;;4.17;100.00
28683;BME280;15862;43.062;25.626;2022-12-01T01:07:06;100852.56;;;4.05;100.00
28683;BME280;15862;43.062;25.626;2022-12-01T01:09:31;100855.81;;;4.10;100.00
28683;BME280;15862;43.062;25.626;2022-12-01T01:11:57;100842.88;;;3.88;100.00
28683;BME280;15862;43.062;25.626;2022-12-01T01:14:23;100863.66;;;4.04;100.00
28683;BME280;15862;43.062;25.626;2022-12-01T01:16:49;100865.97;;;3.85;100.00
28683;BME280;15862;43.062;25.626;2022-12-01T01:19:15;100838.84;;;3.81;100.00
28683;BME280;15862;43.062;25.626;2022-12-01T01:21:41;100850.59;;;3.87;100.00
28683;BME280;15862;43.062;25.626;2022-12-01T01:24:06;100849.06;;;3.81;100.00
28683;BME280;15862;43.062;25.626;2022-12-01T01:26:32;100849.75;;;3.86;100.00
28683;BME280;15862;43.062;25.626;2022-12-01T01:28:59;100859.09;;;3.87;100.00
28683;BME280;15862;43.062;25.626;2022-12-01T01:31:26;100859.78;;;3.92;100.00
28683;BME280;15862;43.062;25.626;2022-12-01T01:33:54;100857.13;;;3.95;100.00
28683;BME280;15862;43.062;25.626;2022-12-01T01:36:19;100863.66;;;4.04;100.00
28683;BME280;15862;43.062;25.626;2022-12-01T01:38:45;100852.91;;;3.94;100.00
28683;BME280;15862;43.062;25.626;2022-12-01T01:41:11;100856.16;;;3.99;100.00
28683;BME280;15862;43.062;25.626;2022-12-01T01:43:47;100855.38;;;3.97;100.00
28683;BME280;15862;43.062;25.626;2022-12-01T01:46:18;100854.38;;;4.01;100.00
28683;BME280;15862;43.062;25.626;2022-12-01T01:48:50;100855.31;;;3.99;100.00
28683;BME280;15862;43.062;25.626;2022-12-01T01:51:20;100840.28;;;3.90;100.00
28683;BME280;15862;43.062;25.626;2022-12-01T01:53:48;100856.16;;;3.99;100.00
28683;BME280;15862;43.062;25.626;2022-12-01T01:56:15;100863.13;;;3.94;100.00
28683;BME280;15862;43.062;25.626;2022-12-01T01:58:40;100853.91;;;3.90;100.00
28683;BME280;15862;43.062;25.626;2022-12-01T02:01:06;100841.13;;;3.90;100.00
28683;BME280;15862;43.062;25.626;2022-12-01T02:03:32;100854.03;;;3.86;100.00
28683;BME280;15862;43.062;25.626;2022-12-01T02:05:59;100846.50;;;3.81;100.00
28683;BME280;15862;43.062;25.626;2022-12-01T02:08:25;100846.59;;;3.78;100.00
28683;BME280;15862;43.062;25.626;2022-12-01T02:13:57;100846.59;;;3.78;100.00
28683;BME280;15862;43.062;25.626;2022-12-01T02:16:48;100839.03;;;3.76;100.00
28683;BME280;15862;43.062;25.626;2022-12-01T02:31:35;100838.38;;;3.71;100.00
28683;BME280;15862;43.062;25.626;2022-12-01T02:33:37;100837.84;;;3.60;100.00
28683;BME280;15862;43.062;25.626;2022-12-01T02:41:33;100836.84;;;3.64;100.00
28683;BME280;15862;43.062;25.626;2022-12-01T02:46:31;100850.41;;;3.66;100.00
28683;BME280;15862;43.062;25.626;2022-12-01T02:49:01;100829.31;;;3.61;100.00
28683;BME280;15862;43.062;25.626;2022-12-01T02:51:30;100829.25;;;3.62;100.00
28683;BME280;15862;43.062;25.626;2022-12-01T02:54:01;100847.78;;;3.69;100.00
28683;BME280;15862;43.062;25.626;2022-12-01T02:56:27;100831.75;;;3.64;100.00
28683;BME280;15862;43.062;25.626;2022-12-01T02:58:53;100838.38;;;3.69;100.00
28683;BME280;15862;43.062;25.626;2022-12-01T03:01:36;100836.97;;;3.61;100.00
28683;BME280;15862;43.062;25.626;2022-12-01T03:07:58;100842.06;;;3.61;100.00
28683;BME280;15862;43.062;25.626;2022-12-01T03:10:47;100825.16;;;3.57;100.00
28683;BME280;15862;43.062;25.626;2022-12-01T03:13:51;100835.38;;;3.57;100.00
28683;BME280;15862;43.062;25.626;2022-12-01T03:16:32;100835.47;;;3.54;100.00
28683;BME280;15862;43.062;25.626;2022-12-01T03:19:41;100835.56;;;3.51;100.00
28683;BME280;15862;43.062;25.626;2022-12-01T03:22:16;100838.03;;;3.54;100.00
28683;BME280;15862;43.062;25.626;2022-12-01T03:24:50;100830.38;;;3.54;100.00
28683;BME280;15862;43.062;25.626;2022-12-01T03:27:21;100814.38;;;3.47;100.00
28683;BME280;15862;43.062;25.626;2022-12-01T03:29:50;100835.66;;;3.48;100.00
28683;BME280;15862;43.062;25.626;2022-12-01T03:32:23;100829.50;;;3.53;100.00
28683;BME280;15862;43.062;25.626;2022-12-01T03:35:00;100837.03;;;3.58;100.00
28683;BME280;15862;43.062;25.626;2022-12-01T03:37:33;100833.56;;;3.60;100.00
28683;BME280;15862;43.062;25.626;2022-12-01T03:40:02;100831.78;;;3.62;100.00
28683;BME280;15862;43.062;25.626;2022-12-01T03:42:57;100828.88;;;3.47;100.00
28683;BME280;15862;43.062;25.626;2022-12-01T03:45:35;100826.81;;;3.58;100.00
28683;BME280;15862;43.062;25.626;2022-12-01T03:48:05;100804.84;;;3.54;100.00
28683;BME280;15862;43.062;25.626;2022-12-01T03:50:37;100823.41;;;3.59;100.00
28683;BME280;15862;43.062;25.626;2022-12-01T03:53:21;100817.34;;;3.61;100.00
28683;BME280;15862;43.062;25.626;2022-12-01T03:55:56;100803.91;;;3.56;100.00
28683;BME280;15862;43.062;25.626;2022-12-01T03:58:29;100817.00;;;3.72;100.00
28683;BME280;15862;43.062;25.626;2022-12-01T04:01:00;100815.66;;;3.60;100.00
28683;BME280;15862;43.062;25.626;2022-12-01T04:03:26;100817.34;;;3.61;100.00
28683;BME280;15862;43.062;25.626;2022-12-01T04:05:52;100821.72;;;3.58;100.00
28683;BME280;15862;43.062;25.626;2022-12-01T04:08:17;100821.56;;;3.62;100.00
28683;BME280;15862;43.062;25.626;2022-12-01T04:10:43;100822.19;;;3.70;100.00
28683;BME280;15862;43.062;25.626;2022-12-01T04:13:09;100825.41;;;3.77;100.00
28683;BME280;15862;43.062;25.626;2022-12-01T04:15:50;100816.88;;;3.76;100.00
28683;BME280;15862;43.062;25.626;2022-12-01T04:18:16;100813.31;;;3.81;100.00
28683;BME280;15862;43.062;25.626;2022-12-01T04:20:43;100822.53;;;3.85;100.00
28683;BME280;15862;43.062;25.626;2022-12-01T04:23:09;100823.19;;;3.65;100.00
28683;BME280;15862;43.062;25.626;2022-12-01T04:25:34;100829.50;;;3.53;100.00
28683;BME280;15862;43.062;25.626;2022-12-01T04:27:59;100824.38;;;3.55;100.00
28683;BME280;15862;43.062;25.626;2022-12-01T04:30:25;100827.69;;;3.57;100.00
28683;BME280;15862;43.062;25.626;2022-12-01T04:32:50;100822.38;;;3.37;100.00
28683;BME280;15862;43.062;25.626;2022-12-01T04:35:16;100839.78;;;3.52;100.00
28683;BME280;15862;43.062;25.626;2022-12-01T04:37:41;100839.00;;;3.50;100.00
28683;BME280;15862;43.062;25.626;2022-12-01T04:40:07;100835.56;;;3.51;100.00
28683;BME280;15862;43.062;25.626;2022-12-01T04:42:33;100833.06;;;3.49;100.00
28683;BME280;15862;43.062;25.626;2022-12-01T04:44:58;100839.28;;;3.41;100.00
28683;BME280;15862;43.062;25.626;2022-12-01T04:47:24;100832.59;;;3.37;100.00
28683;BME280;15862;43.062;25.626;2022-12-01T04:49:49;100843.53;;;3.40;100.00
28683;BME280;15862;43.062;25.626;2022-12-01T04:52:14;100834.06;;;3.44;100.00
28683;BME280;15862;43.062;25.626;2022-12-01T04:54:41;100841.59;;;3.48;100.00
28683;BME280;15862;43.062;25.626;2022-12-01T04:57:06;100838.91;;;3.53;100.00
28683;BME280;15862;43.062;25.626;2022-12-01T04:59:32;100822.38;;;3.37;100.00
28683;BME280;15862;43.062;25.626;2022-12-01T05:01:57;100838.16;;;3.49;100.00
28683;BME280;15862;43.062;25.626;2022-12-01T05:04:23;100840.06;;;3.43;100.00
28683;BME280;15862;43.062;25.626;2022-12-01T05:06:48;100823.97;;;3.41;100.00
28683;BME280;15862;43.062;25.626;2022-12-01T05:09:14;100843.28;;;3.49;100.00
28683;BME280;15862;43.062;25.626;2022-12-01T05:11:40;100847.63;;;3.46;100.00
28683;BME280;15862;43.062;25.626;2022-12-01T05:14:06;100838.84;;;3.54;100.00
28683;BME280;15862;43.062;25.626;2022-12-01T05:16:32;100816.31;;;3.41;100.00
28683;BME280;15862;43.062;25.626;2022-12-01T05:19:02;100834.44;;;3.32;100.00
28683;BME280;15862;43.062;25.626;2022-12-01T05:21:48;100833.44;;;3.37;100.00
28683;BME280;15862;43.062;25.626;2022-12-01T05:24:14;100835.25;;;3.32;100.00
28683;BME280;15862;43.062;25.626;2022-12-01T05:26:41;100828.78;;;3.22;100.00
28683;BME280;15862;43.062;25.626;2022-12-01T05:29:08;100824.75;;;3.14;100.00
28683;BME280;15862;43.062;25.626;2022-12-01T05:31:34;100831.47;;;3.18;100.00
28683;BME280;15862;43.062;25.626;2022-12-01T05:33:59;100830.59;;;3.19;100.00
28683;BME280;15862;43.062;25.626;2022-12-01T05:36:25;100834.63;;;3.26;100.00
28683;BME280;15862;43.062;25.626;2022-12-01T05:38:51;100820.41;;;3.17;100.00
28683;BME280;15862;43.062;25.626;2022-12-01T05:41:16;100835.72;;;3.17;100.00
28683;BME280;15862;43.062;25.626;2022-12-01T05:43:42;100826.59;;;3.09;100.00
28683;BME280;15862;43.062;25.626;2022-12-01T05:46:07;100829.16;;;3.09;100.00
28683;BME280;15862;43.062;25.626;2022-12-01T05:48:32;100840.63;;;3.23;100.00
28683;BME280;15862;43.062;25.626;2022-12-01T05:50:58;100843.25;;;3.22;100.00
28683;BME280;15862;43.062;25.626;2022-12-01T05:53:23;100821.44;;;3.12;100.00
28683;BME280;15862;43.062;25.626;2022-12-01T05:55:52;100842.44;;;3.20;100.00
28683;BME280;15862;43.062;25.626;2022-12-01T05:58:18;100842.59;;;3.15;100.00
28683;BME280;15862;43.062;25.626;2022-12-01T06:00:44;100824.84;;;3.11;100.00
28683;BME280;15862;43.062;25.626;2022-12-01T06:03:09;100828.09;;;3.16;100.00
28683;BME280;15862;43.062;25.626;2022-12-01T06:05:35;100842.97;;;3.31;100.00
28683;BME280;15862;43.062;25.626;2022-12-01T06:08:00;100844.09;;;3.22;100.00
28683;BME280;15862;43.062;25.626;2022-12-01T06:10:26;100848.16;;;3.28;100.00
28683;BME280;15862;43.062;25.626;2022-12-01T06:12:51;100844.22;;;3.18;100.00
28683;BME280;15862;43.062;25.626;2022-12-01T06:15:17;100831.72;;;3.09;100.00
28683;BME280;15862;43.062;25.626;2022-12-01T06:17:43;100851.88;;;3.18;100.00
28683;BME280;15862;43.062;25.626;2022-12-01T06:20:09;100845.00;;;3.20;100.00
28683;BME280;15862;43.062;25.626;2022-12-01T06:22:34;100849.09;;;3.25;100.00
28683;BME280;15862;43.062;25.626;2022-12-01T06:25:00;100853.44;;;3.22;100.00
28683;BME280;15862;43.062;25.626;2022-12-01T06:27:25;100843.25;;;3.22;100.00
28683;BME280;15862;43.062;25.626;2022-12-01T06:29:51;100832.22;;;3.20;100.00
28683;BME280;15862;43.062;25.626;2022-12-01T06:32:16;100841.31;;;3.30;100.00
28683;BME280;15862;43.062;25.626;2022-12-01T06:34:41;100851.19;;;3.40;100.00
28683;BME280;15862;43.062;25.626;2022-12-01T06:37:08;100846.69;;;3.48;100.00
28683;BME280;15862;43.062;25.626;2022-12-01T06:39:34;100815.63;;;3.34;100.00
28683;BME280;15862;43.062;25.626;2022-12-01T06:41:59;100833.06;;;3.49;100.00
28683;BME280;15862;43.062;25.626;2022-12-01T06:44:24;100834.81;;;3.47;100.00
28683;BME280;15862;43.062;25.626;2022-12-01T06:46:50;100841.28;;;3.59;100.00
28683;BME280;15862;43.062;25.626;2022-12-01T06:49:17;100841.97;;;3.64;100.00
28683;BME280;15862;43.062;25.626;2022-12-01T06:51:43;100840.81;;;3.74;100.00
28683;BME280;15862;43.062;25.626;2022-12-01T06:54:12;100830.38;;;3.79;100.00
28683;BME280;15862;43.062;25.626;2022-12-01T06:56:39;100835.81;;;3.71;100.00
28683;BME280;15862;43.062;25.626;2022-12-01T06:59:05;100825.41;;;3.75;100.00
28683;BME280;15862;43.062;25.626;2022-12-01T07:01:30;100821.03;;;3.78;100.00
28683;BME280;15862;43.062;25.626;2022-12-01T07:03:56;100824.19;;;3.86;100.00
28683;BME280;15862;43.062;25.626;2022-12-01T07:06:21;100820.69;;;3.90;100.00
28683;BME280;15862;43.062;25.626;2022-12-01T07:08:46;100825.00;;;3.88;100.00
28683;BME280;15862;43.062;25.626;2022-12-01T07:11:14;100824.00;;;3.92;100.00
28683;BME280;15862;43.062;25.626;2022-12-01T07:13:42;100821.66;;;3.86;100.00
28683;BME280;15862;43.062;25.626;2022-12-01T07:16:11;100819.81;;;3.90;100.00
28683;BME280;15862;43.062;25.626;2022-12-01T07:18:37;100818.88;;;3.92;100.00
28683;BME280;15862;43.062;25.626;2022-12-01T07:21:09;100828.81;;;4.01;100.00
28683;BME280;15862;43.062;25.626;2022-12-01T07:23:35;100819.47;;;4.00;100.00
28683;BME280;15862;43.062;25.626;2022-12-01T07:26:12;100817.56;;;4.07;100.00
28683;BME280;15862;43.062;25.626;2022-12-01T07:28:38;100834.59;;;4.08;100.00
28683;BME280;15862;43.062;25.626;2022-12-01T07:31:08;100810.06;;;4.02;100.00
28683;BME280;15862;43.062;25.626;2022-12-01T07:33:35;100827.66;;;4.11;100.00
28683;BME280;15862;43.062;25.626;2022-12-01T07:36:00;100824.16;;;4.14;100.00
28683;BME280;15862;43.062;25.626;2022-12-01T07:38:27;100823.41;;;4.10;100.00
28683;BME280;15862;43.062;25.626;2022-12-01T07:40:53;100821.53;;;4.15;100.00
28683;BME280;15862;43.062;25.626;2022-12-01T07:43:19;100815.47;;;4.19;100.00
28683;BME280;15862;43.062;25.626;2022-12-01T07:45:44;100818.59;;;4.27;100.00
28683;BME280;15862;43.062;25.626;2022-12-01T07:48:10;100818.00;;;4.19;100.00
28683;BME280;15862;43.062;25.626;2022-12-01T07:50:35;100818.31;;;4.10;100.00
28683;BME280;15862;43.062;25.626;2022-12-01T07:53:01;100816.84;;;4.03;100.00
28683;BME280;15862;43.062;25.626;2022-12-01T07:55:26;100825.91;;;4.12;100.00
28683;BME280;15862;43.062;25.626;2022-12-01T07:57:51;100813.75;;;3.94;100.00
28683;BME280;15862;43.062;25.626;2022-12-01T08:00:18;100822.53;;;3.85;100.00
28683;BME280;15862;43.062;25.626;2022-12-01T08:02:43;100821.63;;;3.88;100.00
28683;BME280;15862;43.062;25.626;2022-12-01T08:05:09;100818.94;;;3.91;100.00
28683;BME280;15862;43.062;25.626;2022-12-01T08:07:34;100828.06;;;3.99;100.00
28683;BME280;15862;43.062;25.626;2022-12-01T08:09:59;100825.59;;;3.96;100.00
28683;BME280;15862;43.062;25.626;2022-12-01T08:12:25;100831.16;;;4.09;100.00
28683;BME280;15862;43.062;25.626;2022-12-01T08:14:50;100822.63;;;4.08;100.00
28683;BME280;15862;43.062;25.626;2022-12-01T08:17:16;100783.44;;;3.83;100.00
28683;BME280;15862;43.062;25.626;2022-12-01T08:19:41;100825.09;;;4.11;100.00
28683;BME280;15862;43.062;25.626;2022-12-01T08:22:06;100829.03;;;4.21;100.00
28683;BME280;15862;43.062;25.626;2022-12-01T08:24:32;100835.13;;;4.17;100.00
28683;BME280;15862;43.062;25.626;2022-12-01T08:26:57;100837.44;;;4.25;100.00
28683;BME280;15862;43.062;25.626;2022-12-01T08:29:23;100786.75;;;3.85;100.00
28683;BME280;15862;43.062;25.626;2022-12-01T08:31:48;100826.56;;;4.18;100.00
28683;BME280;15862;43.062;25.626;2022-12-01T08:34:14;100827.16;;;4.26;100.00
28683;BME280;15862;43.062;25.626;2022-12-01T08:36:39;100829.28;;;4.38;100.00
28683;BME280;15862;43.062;25.626;2022-12-01T08:39:06;100831.06;;;4.36;100.00
28683;BME280;15862;43.062;25.626;2022-12-01T08:41:32;100829.19;;;4.41;100.00
28683;BME280;15862;43.062;25.626;2022-12-01T08:43:57;100826.84;;;4.35;100.00
28683;BME280;15862;43.062;25.626;2022-12-01T08:46:24;100821.75;;;4.34;100.00
28683;BME280;15862;43.062;25.626;2022-12-01T08:48:50;100821.03;;;4.30;100.00
28683;BME280;15862;43.062;25.626;2022-12-01T08:51:17;100824.00;;;4.18;100.00
28683;BME280;15862;43.062;25.626;2022-12-01T08:53:46;100818.72;;;3.98;100.00
28683;BME280;15862;43.062;25.626;2022-12-01T08:56:24;100817.25;;;3.91;100.00
28683;BME280;15862;43.062;25.626;2022-12-01T08:58:50;100811.28;;;3.91;100.00
28683;BME280;15862;43.062;25.626;2022-12-01T09:01:18;100818.88;;;3.92;100.00
28683;BME280;15862;43.062;25.626;2022-12-01T09:03:44;100808.53;;;3.97;100.00
28683;BME280;15862;43.062;25.626;2022-12-01T09:06:12;100810.09;;;4.01;100.00
28683;BME280;15862;43.062;25.626;2022-12-01T09:08:39;100806.03;;;3.95;100.00
28683;BME280;15862;43.062;25.626;2022-12-01T09:11:08;100810.16;;;3.99;100.00
28683;BME280;15862;43.062;25.626;2022-12-01T09:13:35;100801.78;;;3.94;100.00
28683;BME280;15862;43.062;25.626;2022-12-01T09:16:03;100797.47;;;3.96;100.00
28683;BME280;15862;43.062;25.626;2022-12-01T09:18:30;100805.06;;;3.99;100.00
28683;BME280;15862;43.062;25.626;2022-12-01T09:20:55;100806.19;;;4.15;100.00
28683;BME280;15862;43.062;25.626;2022-12-01T09:23:22;100787.84;;;4.04;100.00
28683;BME280;15862;43.062;25.626;2022-12-01T09:25:49;100809.41;;;4.22;100.00
28683;BME280;15862;43.062;25.626;2022-12-01T09:28:15;100805.09;;;4.22;100.00
28683;BME280;15862;43.062;25.626;2022-12-01T09:30:42;100794.13;;;4.20;100.00
28683;BME280;15862;43.062;25.626;2022-12-01T09:33:08;100798.22;;;4.24;100.00
28683;BME280;15862;43.062;25.626;2022-12-01T09:35:33;100791.13;;;4.32;100.00
28683;BME280;15862;43.062;25.626;2022-12-01T09:37:59;100782.47;;;4.36;100.00
28683;BME280;15862;43.062;25.626;2022-12-01T09:40:29;100777.81;;;4.47;100.00
28683;BME280;15862;43.062;25.626;2022-12-01T09:42:57;100770.31;;;4.43;100.00
28683;BME280;15862;43.062;25.626;2022-12-01T09:45:27;100775.28;;;4.47;100.00
28683;BME280;15862;43.062;25.626;2022-12-01T09:47:56;100765.41;;;4.37;100.00
28683;BME280;15862;43.062;25.626;2022-12-01T09:50:24;100762.19;;;4.32;100.00
28683;BME280;15862;43.062;25.626;2022-12-01T09:52:56;100763.84;;;4.33;100.00
28683;BME280;15862;43.062;25.626;2022-12-01T09:55:24;100768.75;;;4.39;100.00
28683;BME280;15862;43.062;25.626;2022-12-01T09:57:53;100766.94;;;4.42;100.00
28683;BME280;15862;43.062;25.626;2022-12-01T10:00:22;100763.00;;;4.32;100.00
28683;BME280;15862;43.062;25.626;2022-12-01T10:02:52;100750.50;;;4.25;100.00
28683;BME280;15862;43.062;25.626;2022-12-01T10:05:22;100721.34;;;4.06;100.00
28683;BME280;15862;43.062;25.626;2022-12-01T10:07:58;100738.81;;;4.18;100.00
28683;BME280;15862;43.062;25.626;2022-12-01T10:10:32;100754.81;;;4.23;100.00
28683;BME280;15862;43.062;25.626;2022-12-01T10:12:58;100757.06;;;4.07;100.00
28683;BME280;15862;43.062;25.626;2022-12-01T10:16:11;100750.31;;;4.05;100.00
28683;BME280;15862;43.062;25.626;2022-12-01T10:18:55;100753.63;;;4.08;100.00
28683;BME280;15862;43.062;25.626;2022-12-01T10:24:24;100750.75;;;4.17;100.00
28683;BME280;15862;43.062;25.626;2022-12-01T10:27:03;100755.41;;;4.06;100.00
28683;BME280;15862;43.062;25.626;2022-12-01T10:29:39;100752.66;;;4.11;100.00
28683;BME280;15862;43.062;25.626;2022-12-01T10:35:16;100749.13;;;4.15;100.00
28683;BME280;15862;43.062;25.626;2022-12-01T10:37:43;100752.53;;;4.15;100.00
28683;BME280;15862;43.062;25.626;2022-12-01T10:40:14;100749.22;;;4.12;100.00
28683;BME280;15862;43.062;25.626;2022-12-01T10:42:45;100760.91;;;4.19;100.00
28683;BME280;15862;43.062;25.626;2022-12-01T10:45:22;100746.81;;;4.07;100.00
28683;BME280;15862;43.062;25.626;2022-12-01T10:50:33;100752.63;;;4.12;100.00
28683;BME280;15862;43.062;25.626;2022-12-01T10:53:00;100749.19;;;4.13;100.00
28683;BME280;15862;43.062;25.626;2022-12-01T10:55:29;100748.19;;;4.17;100.00
28683;BME280;15862;43.062;25.626;2022-12-01T10:57:59;100747.97;;;4.23;100.00
28683;BME280;15862;43.062;25.626;2022-12-01T11:00:36;100741.97;;;4.24;100.00
28683;BME280;15862;43.062;25.626;2022-12-01T11:03:02;100735.41;;;4.17;100.00
28683;BME280;15862;43.062;25.626;2022-12-01T11:05:35;100741.72;;;4.32;100.00
28683;BME280;15862;43.062;25.626;2022-12-01T11:08:03;100745.13;;;4.32;100.00
28683;BME280;15862;43.062;25.626;2022-12-01T11:10:31;100740.78;;;4.34;100.00
28683;BME280;15862;43.062;25.626;2022-12-01T11:13:14;100745.69;;;4.40;100.00
28683;BME280;15862;43.062;25.626;2022-12-01T11:16:03;100732.97;;;4.39;100.00
28683;BME280;15862;43.062;25.626;2022-12-01T11:18:35;100730.44;;;4.37;100.00
28683;BME280;15862;43.062;25.626;2022-12-01T11:21:08;100732.22;;;4.35;100.00
28683;BME280;15862;43.062;25.626;2022-12-01T11:23:36;100742.34;;;4.38;100.00
28683;BME280;15862;43.062;25.626;2022-12-01T11:26:08;100740.47;;;4.43;100.00
28683;BME280;15862;43.062;25.626;2022-12-01T11:28:34;100727.84;;;4.39;100.00
28683;BME280;15862;43.062;25.626;2022-12-01T11:31:04;100736.09;;;4.47;100.00
28683;BME280;15862;43.062;25.626;2022-12-01T11:33:41;100739.56;;;4.44;100.00
28683;BME280;15862;43.062;25.626;2022-12-01T11:36:08;100725.13;;;4.43;100.00
28683;BME280;15862;43.062;25.626;2022-12-01T11:38:34;100738.13;;;4.60;100.00
28683;BME280;15862;43.062;25.626;2022-12-01T11:40:59;100728.59;;;4.65;100.00
28683;BME280;15862;43.062;25.626;2022-12-01T11:43:33;100723.50;;;4.63;100.00
28683;BME280;15862;43.062;25.626;2022-12-01T11:46:02;100720.00;;;4.66;100.00
28683;BME280;15862;43.062;25.626;2022-12-01T11:48:30;100716.53;;;4.67;100.00
28683;BME280;15862;43.062;25.626;2022-12-01T11:58:37;100718.00;;;4.51;100.00
28683;BME280;15862;43.062;25.626;2022-12-01T12:01:10;100715.72;;;4.44;100.00
28683;BME280;15862;43.062;25.626;2022-12-01T12:14:28;100723.88;;;4.30;100.00
28683;BME280;15862;43.062;25.626;2022-12-01T12:17:26;100718.66;;;4.33;100.00
28683;BME280;15862;43.062;25.626;2022-12-01T12:22:59;100700.41;;;4.19;100.00
28683;BME280;15862;43.062;25.626;2022-12-01T12:28:29;100721.88;;;4.38;100.00
28683;BME280;15862;43.062;25.626;2022-12-01T12:31:24;100727.72;;;4.42;100.00
28683;BME280;15862;43.062;25.626;2022-12-01T12:41:51;100719.34;;;4.61;100.00
28683;BME280;15862;43.062;25.626;2022-12-01T12:49:49;100693.75;;;4.61;100.00
28683;BME280;15862;43.062;25.626;2022-12-01T12:52:21;100707.00;;;4.72;100.00
28683;BME280;15862;43.062;25.626;2022-12-01T12:54:51;100699.41;;;4.69;100.00
28683;BME280;15862;43.062;25.626;2022-12-01T12:57:39;100703.88;;;4.64;100.00
28683;BME280;15862;43.062;25.626;2022-12-01T13:02:41;100699.75;;;4.37;100.00
28683;BME280;15862;43.062;25.626;2022-12-01T13:07:51;100707.47;;;4.36;100.00
28683;BME280;15862;43.062;25.626;2022-12-01T13:10:23;100714.19;;;4.15;100.00
28683;BME280;15862;43.062;25.626;2022-12-01T13:12:59;100717.31;;;4.23;100.00
28683;BME280;15862;43.062;25.626;2022-12-01T13:15:26;100707.28;;;4.17;100.00
28683;BME280;15862;43.062;25.626;2022-12-01T13:18:02;100730.38;;;4.16;100.00
28683;BME280;15862;43.062;25.626;2022-12-01T13:20:29;100726.06;;;4.16;100.00
28683;BME280;15862;43.062;25.626;2022-12-01T13:22:58;100726.28;;;4.10;100.00
28683;BME280;15862;43.062;25.626;2022-12-01T13:25:32;100727.09;;;4.11;100.00
28683;BME280;15862;43.062;25.626;2022-12-01T13:28:00;100712.72;;;4.08;100.00
28683;BME280;15862;43.062;25.626;2022-12-01T13:30:27;100729.41;;;4.18;100.00
28683;BME280;15862;43.062;25.626;2022-12-01T13:33:01;100733.66;;;4.19;100.00
28683;BME280;15862;43.062;25.626;2022-12-01T13:35:33;100728.41;;;4.22;100.00
28683;BME280;15862;43.062;25.626;2022-12-01T13:40:45;100727.66;;;4.20;100.00
28683;BME280;15862;43.062;25.626;2022-12-01T13:43:20;100718.31;;;4.19;100.00
28683;BME280;15862;43.062;25.626;2022-12-01T13:45:47;100730.75;;;4.04;100.00
28683;BME280;15862;43.062;25.626;2022-12-01T13:48:50;100728.91;;;4.09;100.00
28683;BME280;15862;43.062;25.626;2022-12-01T13:51:16;100729.16;;;4.01;100.00
28683;BME280;15862;43.062;25.626;2022-12-01T13:54:27;100732.78;;;3.96;100.00
28683;BME280;15862;43.062;25.626;2022-12-01T13:57:04;100724.53;;;3.88;100.00
28683;BME280;15862;43.062;25.626;2022-12-01T14:02:33;100729.72;;;3.85;100.00
28683;BME280;15862;43.062;25.626;2022-12-01T14:07:49;100735.34;;;3.94;100.00
28683;BME280;15862;43.062;25.626;2022-12-01T14:10:22;100737.69;;;4.00;100.00
28683;BME280;15862;43.062;25.626;2022-12-01T14:12:50;100730.75;;;4.04;100.00
28683;BME280;15862;43.062;25.626;2022-12-01T14:15:29;100733.22;;;4.07;100.00
28683;BME280;15862;43.062;25.626;2022-12-01T14:18:19;100734.97;;;4.06;100.00